createdAt,value
2023-05-19T11:24:52.004Z,102168.63
2023-05-19T11:25:54.400Z,102155.00
2023-05-19T11:26:57.246Z,102162.94
2023-05-19T11:28:00.059Z,102162.34
2023-05-19T11:29:02.258Z,102160.13
2023-05-19T11:30:07.779Z,102152.16
2023-05-19T11:31:11.463Z,102153.59
2023-05-19T11:32:14.706Z,102155.88
2023-05-19T11:33:21.850Z,102156.69
2023-05-19T11:34:25.876Z,102148.16
2023-05-19T11:35:29.528Z,102155.06
2023-05-19T11:36:32.833Z,102152.41
2023-05-19T11:37:35.767Z,102152.19
2023-05-19T11:38:38.092Z,102155.44
2023-05-19T11:39:41.323Z,102155.03
2023-05-19T11:40:44.507Z,102159.69
2023-05-19T11:41:46.342Z,102146.22
2023-05-19T11:42:48.218Z,102152.94
2023-05-19T11:43:50.031Z,102154.34
2023-05-19T11:44:56.437Z,102140.28
2023-05-19T11:45:58.334Z,102144.75
2023-05-19T11:47:01.024Z,102145.34
2023-05-19T11:48:03.436Z,102146.72
2023-05-19T11:49:05.790Z,102145.91
2023-05-19T11:50:10.707Z,102148.75
2023-05-19T11:51:12.694Z,102160.34
2023-05-19T11:52:15.501Z,102160.94
2023-05-19T11:53:19.505Z,102156.66
2023-05-19T11:54:21.414Z,102156.44
2023-05-19T11:55:23.400Z,102155.63
2023-05-19T11:56:25.243Z,102157.25
2023-05-19T11:57:27.457Z,102163.75
2023-05-19T11:58:30.191Z,102160.88
2023-05-19T11:59:35.633Z,102159.03
2023-05-19T12:00:43.068Z,102158.03
2023-05-19T12:01:44.943Z,102163.53
2023-05-19T12:02:47.037Z,102171.50
2023-05-19T12:03:49.759Z,102153.97
2023-05-19T12:04:53.455Z,102161.53
2023-05-19T12:05:56.749Z,102158.09
2023-05-19T12:06:59.312Z,102156.44
2023-05-19T12:08:01.403Z,102163.16
2023-05-19T12:09:06.062Z,102163.53
2023-05-19T12:10:10.030Z,102158.22
2023-05-19T12:11:11.864Z,102148.44
2023-05-19T12:12:22.140Z,102143.13
2023-05-19T12:13:25.165Z,102157.63
2023-05-19T12:14:29.747Z,102160.50
2023-05-19T12:15:33.577Z,102159.09
2023-05-19T12:16:36.335Z,102159.75
2023-05-19T12:17:38.275Z,102151.19
2023-05-19T12:18:42.649Z,102155.44
2023-05-19T12:19:47.763Z,102157.50
2023-05-19T12:20:50.207Z,102146.31
2023-05-19T12:21:53.901Z,102153.03
2023-05-19T12:22:56.454Z,102156.28
2023-05-19T12:23:59.990Z,102150.97
2023-05-19T12:25:02.823Z,102143.84
2023-05-19T12:26:06.194Z,102146.63
2023-05-19T12:27:23.749Z,102136.19
2023-05-19T12:28:25.810Z,102148.81
2023-05-19T12:29:29.159Z,102151.06
2023-05-19T12:30:33.638Z,102142.94
2023-05-19T12:31:36.450Z,102143.16
2023-05-19T12:32:39.141Z,102139.75
2023-05-19T12:33:41.583Z,102149.78
2023-05-19T12:34:43.496Z,102141.22
2023-05-19T12:35:47.903Z,102144.06
2023-05-19T12:36:50.235Z,102139.81
2023-05-19T12:37:52.162Z,102141.66
2023-05-19T12:38:55.518Z,102136.13
2023-05-19T12:39:58.426Z,102139.59
2023-05-19T12:41:00.328Z,102137.16
2023-05-19T12:42:12.985Z,102140.84
2023-05-19T12:43:25.002Z,102141.66
2023-05-19T12:44:28.339Z,102128.63
2023-05-19T12:45:36.194Z,102127.59
2023-05-19T12:46:40.723Z,102129.19
2023-05-19T12:47:47.248Z,102131.84
2023-05-19T12:48:49.671Z,102133.47
2023-05-19T12:50:11.011Z,102130.81
2023-05-19T12:51:20.089Z,102136.34
2023-05-19T12:52:27.801Z,102129.41
2023-05-19T12:53:29.648Z,102130.66
2023-05-19T12:54:34.445Z,102124.34
2023-05-19T12:55:45.195Z,102128.63
2023-05-19T12:56:53.947Z,102127.81
2023-05-19T12:57:58.889Z,102123.53
2023-05-19T12:59:01.950Z,102125.97
2023-05-19T13:00:15.002Z,102127.00
2023-05-19T13:01:18.866Z,102112.94
2023-05-19T13:02:21.368Z,102111.91
2023-05-19T13:03:23.405Z,102104.13
2023-05-19T13:04:26.859Z,102106.59
2023-05-19T13:05:35.350Z,102107.41
2023-05-19T13:06:37.224Z,102101.69
2023-05-19T13:07:39.621Z,102112.94
2023-05-19T13:08:41.686Z,102113.94
2023-05-19T13:09:43.479Z,102106.59
2023-05-19T13:10:47.229Z,102107.63
2023-05-19T13:11:51.266Z,102104.34
2023-05-19T13:12:55.811Z,102108.84
2023-05-19T13:13:57.627Z,102124.97
2023-05-19T13:15:00.023Z,102121.72
2023-05-19T13:16:01.826Z,102115.22
2023-05-19T13:17:04.003Z,102118.28
2023-05-19T13:18:09.720Z,102115.06
2023-05-19T13:19:24.807Z,102116.09
2023-05-19T13:20:28.685Z,102117.13
2023-05-19T13:21:30.603Z,102118.94
2023-05-19T13:22:32.642Z,102118.94
2023-05-19T13:23:34.825Z,102113.66
2023-05-19T13:24:36.652Z,102109.75
2023-05-19T13:25:39.312Z,102111.75
2023-05-19T13:26:41.579Z,102111.50
2023-05-19T13:27:46.077Z,102116.16
2023-05-19T13:28:47.920Z,102107.56
2023-05-19T13:29:49.747Z,102104.47
2023-05-19T13:30:52.067Z,102098.09
2023-05-19T13:31:53.990Z,102102.34
2023-05-19T13:32:56.107Z,102115.72
2023-05-19T13:33:57.987Z,102109.19
2023-05-19T13:35:01.747Z,102110.81
2023-05-19T13:36:03.865Z,102109.44
2023-05-19T13:37:07.646Z,102103.72
2023-05-19T13:38:10.743Z,102109.69
2023-05-19T13:39:12.711Z,102113.81
2023-05-19T13:40:15.806Z,102118.13
2023-05-19T13:41:18.258Z,102107.75
2023-05-19T13:42:20.513Z,102112.72
2023-05-19T13:43:22.350Z,102106.78
2023-05-19T13:44:25.791Z,102106.41
2023-05-19T13:45:27.717Z,102106.41
2023-05-19T13:46:40.883Z,102113.78
2023-05-19T13:47:46.890Z,102110.50
2023-05-19T13:48:48.736Z,102107.28
2023-05-19T13:49:51.475Z,102105.66
2023-05-19T13:50:55.432Z,102104.88
2023-05-19T13:52:01.201Z,102112.84
2023-05-19T13:53:03.730Z,102111.63
2023-05-19T13:54:05.548Z,102107.13
2023-05-19T13:55:08.324Z,102109.38
2023-05-19T13:56:10.194Z,102110.19
2023-05-19T13:57:12.311Z,102105.34
2023-05-19T13:58:16.834Z,102109.84
2023-05-19T13:59:18.822Z,102106.59
2023-05-19T14:00:21.361Z,102103.09
2023-05-19T14:01:23.278Z,102105.97
2023-05-19T14:02:25.232Z,102099.88
2023-05-19T14:03:27.381Z,102104.56
2023-05-19T14:04:29.419Z,102115.16
2023-05-19T14:05:31.525Z,102122.31
2023-05-19T14:06:33.628Z,102107.84
2023-05-19T14:07:35.933Z,102114.56
2023-05-19T14:08:37.924Z,102118.22
2023-05-19T14:09:39.789Z,102111.31
2023-05-19T14:10:42.548Z,102104.38
2023-05-19T14:11:44.322Z,102103.59
2023-05-19T14:13:08.413Z,102114.19
2023-05-19T14:14:09.389Z,102114.59
2023-05-19T14:15:13.032Z,102113.19
2023-05-19T14:16:14.860Z,102114.63
2023-05-19T14:17:16.673Z,102113.44
2023-05-19T14:18:18.508Z,102104.25
2023-05-19T14:19:20.544Z,102105.47
2023-05-19T14:20:22.651Z,102107.13
2023-05-19T14:21:24.872Z,102116.06
2023-05-19T14:22:27.274Z,102112.81
2023-05-19T14:23:30.225Z,102117.75
2023-05-19T14:24:32.144Z,102119.38
2023-05-19T14:25:33.961Z,102112.06
2023-05-19T14:26:36.332Z,102113.50
2023-05-19T14:27:39.914Z,102115.13
2023-05-19T14:28:42.612Z,102110.63
2023-05-19T14:29:44.468Z,102109.78
2023-05-19T14:30:46.302Z,102118.56
2023-05-19T14:31:48.173Z,102113.22
2023-05-19T14:32:50.017Z,102113.44
2023-05-19T14:33:53.051Z,102116.47
2023-05-19T14:34:54.860Z,102111.75
2023-05-19T14:35:59.845Z,102116.88
2023-05-19T14:37:02.671Z,102121.13
2023-05-19T14:38:04.836Z,102114.81
2023-05-19T14:39:06.665Z,102114.81
2023-05-19T14:40:09.369Z,102116.44
2023-05-19T14:41:11.181Z,102113.56
2023-05-19T14:42:12.979Z,102116.03
2023-05-19T14:43:14.782Z,102114.59
2023-05-19T14:44:16.705Z,102116.22
2023-05-19T14:45:18.614Z,102106.84
2023-05-19T14:46:20.531Z,102110.09
2023-05-19T14:47:22.377Z,102116.22
2023-05-19T14:48:24.166Z,102118.03
2023-05-19T14:49:25.963Z,102123.16
2023-05-19T14:50:29.430Z,102114.59
2023-05-19T14:51:31.541Z,102112.56
2023-05-19T14:52:33.386Z,102109.69
2023-05-19T14:53:35.218Z,102119.47
2023-05-19T14:54:37.034Z,102126.19
2023-05-19T14:55:38.830Z,102118.44
2023-05-19T14:56:40.813Z,102121.69
2023-05-19T14:57:42.603Z,102109.09
2023-05-19T14:58:50.460Z,102115.22
2023-05-19T15:00:02.008Z,102120.91
2023-05-19T15:01:06.917Z,102118.47
2023-05-19T15:02:08.732Z,102117.28
2023-05-19T15:03:11.752Z,102119.31
2023-05-19T15:04:13.750Z,102120.75
2023-05-19T15:05:16.263Z,102121.75
2023-05-19T15:06:18.069Z,102123.81
2023-05-19T15:07:19.864Z,102124.00
2023-05-19T15:08:21.699Z,102118.13
2023-05-19T15:09:23.570Z,102119.34
2023-05-19T15:10:25.480Z,102123.63
2023-05-19T15:11:27.260Z,102120.16
2023-05-19T15:12:29.041Z,102117.75
2023-05-19T15:13:30.878Z,102117.13
2023-05-19T15:14:32.726Z,102115.28
2023-05-19T15:15:34.510Z,102124.25
2023-05-19T15:16:36.434Z,102116.31
2023-05-19T15:17:38.712Z,102111.59
2023-05-19T15:18:40.593Z,102120.16
2023-05-19T15:19:42.988Z,102127.69
2023-05-19T15:20:46.474Z,102114.66
2023-05-19T15:21:50.457Z,102126.06
2023-05-19T15:22:52.236Z,102123.41
2023-05-19T15:23:54.114Z,102122.81
2023-05-19T15:24:55.927Z,102121.78
2023-05-19T15:25:57.843Z,102130.53
2023-05-19T15:27:00.757Z,102120.75
2023-05-19T15:28:02.536Z,102130.34
2023-05-19T15:29:04.353Z,102134.41
2023-05-19T15:30:07.019Z,102128.50
2023-05-19T15:31:08.848Z,102123.41
2023-05-19T15:32:10.654Z,102116.91
2023-05-19T15:33:12.804Z,102118.16
2023-05-19T15:34:14.679Z,102119.41
2023-05-19T15:35:16.461Z,102114.53
2023-05-19T15:36:18.350Z,102111.09
2023-05-19T15:37:20.108Z,102121.09
2023-05-19T15:38:21.963Z,102111.91
2023-05-19T15:39:23.748Z,102112.31
2023-05-19T15:40:25.519Z,102113.13
2023-05-19T15:41:27.306Z,102117.63
2023-05-19T15:42:29.088Z,102117.03
2023-05-19T15:43:30.983Z,102116.41
2023-05-19T15:44:32.777Z,102114.78
2023-05-19T15:45:34.732Z,102110.94
2023-05-19T15:46:36.763Z,102113.16
2023-05-19T15:47:38.654Z,102117.63
2023-05-19T15:48:41.159Z,102114.59
2023-05-19T15:49:43.084Z,102120.09
2023-05-19T15:50:45.129Z,102112.56
2023-05-19T15:51:47.942Z,102118.47
2023-05-19T15:52:49.721Z,102107.28
2023-05-19T15:53:52.083Z,102106.47
2023-05-19T15:54:55.125Z,102113.16
2023-05-19T15:55:57.486Z,102113.16
2023-05-19T15:56:59.311Z,102114.59
2023-05-19T15:58:01.142Z,102111.16
2023-05-19T15:59:03.088Z,102107.25
2023-05-19T16:00:06.323Z,102109.47
2023-05-19T16:01:08.972Z,102109.28
2023-05-19T16:02:11.580Z,102113.34
2023-05-19T16:03:13.624Z,102108.88
2023-05-19T16:04:17.240Z,102105.19
2023-05-19T16:05:19.351Z,102108.69
2023-05-19T16:06:21.299Z,102105.19
2023-05-19T16:07:23.855Z,102106.41
2023-05-19T16:08:25.767Z,102110.09
2023-05-19T16:09:27.607Z,102100.53
2023-05-19T16:10:29.546Z,102107.66
2023-05-19T16:11:31.548Z,102104.78
2023-05-19T16:12:33.786Z,102098.91
2023-05-19T16:13:35.651Z,102106.84
2023-05-19T16:14:37.904Z,102117.44
2023-05-19T16:15:39.876Z,102102.53
2023-05-19T16:16:41.816Z,102114.16
2023-05-19T16:17:44.124Z,102106.44
2023-05-19T16:18:45.967Z,102098.88
2023-05-19T16:19:47.866Z,102103.00
2023-05-19T16:20:51.885Z,102103.22
2023-05-19T16:21:53.673Z,102098.31
2023-05-19T16:22:56.676Z,102096.28
2023-05-19T16:23:58.517Z,102095.91
2023-05-19T16:25:00.294Z,102093.88
2023-05-19T16:26:02.098Z,102092.47
2023-05-19T16:27:04.908Z,102095.50
2023-05-19T16:28:06.828Z,102092.44
2023-05-19T16:29:08.629Z,102102.63
2023-05-19T16:30:11.480Z,102093.47
2023-05-19T16:31:13.278Z,102097.16
2023-05-19T16:32:15.144Z,102097.34
2023-05-19T16:33:17.042Z,102093.50
2023-05-19T16:34:18.822Z,102089.22
2023-05-19T16:35:23.668Z,102093.91
2023-05-19T16:36:25.479Z,102092.44
2023-05-19T16:37:27.300Z,102091.84
2023-05-19T16:38:29.103Z,102094.50
2023-05-19T16:39:30.902Z,102089.41
2023-05-19T16:40:32.950Z,102089.59
2023-05-19T16:41:34.920Z,102092.44
2023-05-19T16:42:36.688Z,102096.13
2023-05-19T16:43:38.450Z,102103.22
2023-05-19T16:44:40.224Z,102106.09
2023-05-19T16:45:42.005Z,102101.78
2023-05-19T16:46:43.922Z,102107.09
2023-05-19T16:47:45.897Z,102104.66
2023-05-19T16:48:47.750Z,102104.66
2023-05-19T16:49:49.759Z,102104.44
2023-05-19T16:50:51.554Z,102100.97
2023-05-19T16:51:54.143Z,102098.34
2023-05-19T16:52:56.073Z,102109.72
2023-05-19T16:53:57.843Z,102097.75
2023-05-19T16:54:59.607Z,102104.66
2023-05-19T16:56:01.552Z,102101.63
2023-05-19T16:57:03.950Z,102103.25
2023-05-19T16:58:05.759Z,102090.41
2023-05-19T16:59:09.435Z,102100.97
2023-05-19T17:00:12.810Z,102102.00
2023-05-19T17:01:16.080Z,102109.13
2023-05-19T17:02:18.430Z,102108.31
2023-05-19T17:03:20.705Z,102114.81
2023-05-19T17:04:22.644Z,102109.94
2023-05-19T17:05:24.519Z,102108.53
2023-05-19T17:06:26.282Z,102111.34
2023-05-19T17:07:29.102Z,102102.81
2023-05-19T17:08:30.917Z,102103.63
2023-05-19T17:09:32.755Z,102111.56
2023-05-19T17:10:35.901Z,102106.47
2023-05-19T17:11:38.111Z,102106.88
2023-05-19T17:12:39.854Z,102109.50
2023-05-19T17:13:43.803Z,102101.19
2023-05-19T17:14:45.675Z,102108.50
2023-05-19T17:15:52.349Z,102104.22
2023-05-19T17:16:54.256Z,102109.50
2023-05-19T17:17:56.090Z,102108.91
2023-05-19T17:18:57.922Z,102110.09
2023-05-19T17:19:59.953Z,102105.66
2023-05-19T17:21:03.957Z,102108.09
2023-05-19T17:22:05.855Z,102111.53
2023-05-19T17:23:08.172Z,102105.63
2023-05-19T17:24:09.989Z,102105.03
2023-05-19T17:25:12.186Z,102109.69
2023-05-19T17:26:15.774Z,102107.06
2023-05-19T17:27:17.566Z,102101.34
2023-05-19T17:28:19.379Z,102110.09
2023-05-19T17:29:21.186Z,102110.09
2023-05-19T17:30:22.995Z,102108.47
2023-05-19T17:31:25.018Z,102108.66
2023-05-19T17:32:28.900Z,102105.22
2023-05-19T17:33:30.963Z,102104.59
2023-05-19T17:34:32.868Z,102104.78
2023-05-19T17:35:34.691Z,102105.44
2023-05-19T17:36:36.580Z,102112.50
2023-05-19T17:37:38.387Z,102113.34
2023-05-19T17:38:40.532Z,102106.41
2023-05-19T17:39:42.348Z,102108.88
2023-05-19T17:40:44.389Z,102101.94
2023-05-19T17:41:46.183Z,102104.41
2023-05-19T17:42:47.951Z,102105.44
2023-05-19T17:43:49.914Z,102112.34
2023-05-19T17:44:51.681Z,102107.84
2023-05-19T17:45:54.372Z,102114.75
2023-05-19T17:46:56.513Z,102113.16
2023-05-19T17:47:58.543Z,102114.75
2023-05-19T17:49:03.324Z,102112.13
2023-05-19T17:50:05.942Z,102117.41
2023-05-19T17:51:07.874Z,102114.75
2023-05-19T17:52:10.721Z,102112.34
2023-05-19T17:53:13.017Z,102110.50
2023-05-19T17:54:15.346Z,102117.41
2023-05-19T17:55:18.684Z,102106.03
2023-05-19T17:56:22.723Z,102119.03
2023-05-19T17:57:30.670Z,102112.72
2023-05-19T17:58:32.871Z,102111.09
2023-05-19T17:59:35.345Z,102117.84
2023-05-19T18:00:37.782Z,102110.72
2023-05-19T18:01:40.774Z,102116.81
2023-05-19T18:02:43.806Z,102112.56
2023-05-19T18:03:49.651Z,102111.53
2023-05-19T18:04:52.594Z,102111.72
2023-05-19T18:05:55.136Z,102103.78
2023-05-19T18:06:59.165Z,102105.63
2023-05-19T18:08:06.843Z,102105.63
2023-05-19T18:09:11.015Z,102110.91
2023-05-19T18:10:16.170Z,102108.47
2023-05-19T18:11:19.115Z,102101.34
2023-05-19T18:12:21.340Z,102102.78
2023-05-19T18:13:23.692Z,102103.59
2023-05-19T18:14:25.628Z,102108.88
2023-05-19T18:15:27.471Z,102107.22
2023-05-19T18:16:29.513Z,102108.25
2023-05-19T18:17:31.431Z,102109.06
2023-05-19T18:18:34.433Z,102106.81
2023-05-19T18:19:36.269Z,102113.13
2023-05-19T18:20:39.369Z,102112.50
2023-05-19T18:21:42.404Z,102110.47
2023-05-19T18:22:44.221Z,102110.84
2023-05-19T18:23:47.847Z,102107.59
2023-05-19T18:24:49.724Z,102113.28
2023-05-19T18:25:53.161Z,102114.28
2023-05-19T18:26:55.099Z,102110.03
2023-05-19T18:27:56.863Z,102112.06
2023-05-19T18:29:02.533Z,102119.34
2023-05-19T18:30:06.347Z,102114.28
2023-05-19T18:31:10.915Z,102117.13
2023-05-19T18:32:14.483Z,102121.59
2023-05-19T18:33:16.688Z,102122.56
2023-05-19T18:34:18.467Z,102115.25
2023-05-19T18:35:21.344Z,102117.88
2023-05-19T18:36:23.640Z,102120.91
2023-05-19T18:37:26.130Z,102128.00
2023-05-19T18:38:28.069Z,102126.59
2023-05-19T18:39:29.817Z,102119.69
2023-05-19T18:40:31.821Z,102125.13
2023-05-19T18:41:33.728Z,102133.88
2023-05-19T18:42:35.700Z,102134.88
2023-05-19T18:43:37.584Z,102127.38
2023-05-19T18:44:39.419Z,102130.19
2023-05-19T18:45:41.366Z,102128.75
2023-05-19T18:46:43.205Z,102135.06
2023-05-19T18:47:45.124Z,102133.22
2023-05-19T18:48:47.181Z,102132.41
2023-05-19T18:49:49.983Z,102132.63
2023-05-19T18:50:52.083Z,102135.44
2023-05-19T18:51:54.142Z,102132.19
2023-05-19T18:52:55.940Z,102133.00
2023-05-19T18:53:57.718Z,102133.81
2023-05-19T18:55:01.070Z,102133.19
2023-05-19T18:56:07.012Z,102141.94
2023-05-19T18:57:09.574Z,102141.13
2023-05-19T18:58:11.649Z,102138.69
2023-05-19T18:59:13.494Z,102136.03
2023-05-19T19:00:16.317Z,102145.16
2023-05-19T19:01:18.670Z,102133.78
2023-05-19T19:02:20.583Z,102140.69
2023-05-19T19:03:22.660Z,102138.25
2023-05-19T19:04:24.423Z,102141.91
2023-05-19T19:05:26.256Z,102139.25
2023-05-19T19:06:28.245Z,102132.34
2023-05-19T19:07:30.023Z,102140.28
2023-05-19T19:08:31.935Z,102142.72
2023-05-19T19:09:34.168Z,102132.31
2023-05-19T19:10:39.100Z,102136.56
2023-05-19T19:11:41.763Z,102138.94
2023-05-19T19:12:43.922Z,102146.22
2023-05-19T19:13:46.254Z,102143.19
2023-05-19T19:14:48.047Z,102139.28
2023-05-19T19:15:49.893Z,102142.13
2023-05-19T19:16:51.683Z,102146.94
2023-05-19T19:17:53.555Z,102155.47
2023-05-19T19:18:55.476Z,102151.56
2023-05-19T19:19:57.496Z,102146.88
2023-05-19T19:21:01.325Z,102141.19
2023-05-19T19:22:03.174Z,102150.91
2023-05-19T19:23:06.641Z,102146.19
2023-05-19T19:24:08.804Z,102148.84
2023-05-19T19:25:10.855Z,102148.03
2023-05-19T19:26:12.662Z,102151.47
2023-05-19T19:27:17.521Z,102156.94
2023-05-19T19:28:19.458Z,102151.84
2023-05-19T19:29:21.856Z,102153.66
2023-05-19T19:30:27.779Z,102152.84
2023-05-19T19:31:31.289Z,102154.88
2023-05-19T19:32:33.941Z,102154.69
2023-05-19T19:33:35.762Z,102154.06
2023-05-19T19:34:37.598Z,102156.69
2023-05-19T19:35:39.491Z,102154.44
2023-05-19T19:36:41.272Z,102156.06
2023-05-19T19:37:43.180Z,102154.81
2023-05-19T19:38:44.948Z,102153.00
2023-05-19T19:39:46.860Z,102155.00
2023-05-19T19:40:52.442Z,102159.28
2023-05-19T19:41:56.908Z,102159.91
2023-05-19T19:42:58.752Z,102150.72
2023-05-19T19:44:00.649Z,102158.28
2023-05-19T19:45:02.589Z,102151.16
2023-05-19T19:46:06.961Z,102157.25
2023-05-19T19:47:08.784Z,102154.00
2023-05-19T19:48:11.878Z,102151.53
2023-05-19T19:49:13.830Z,102148.47
2023-05-19T19:50:15.664Z,102148.69
2023-05-19T19:51:20.146Z,102151.47
2023-05-19T19:52:22.038Z,102152.50
2023-05-19T19:53:24.442Z,102147.75
2023-05-19T19:54:26.345Z,102151.84
2023-05-19T19:55:29.821Z,102155.28
2023-05-19T19:56:31.717Z,102151.03
2023-05-19T19:57:34.183Z,102155.28
2023-05-19T19:58:36.054Z,102155.13
2023-05-19T19:59:37.839Z,102154.31
2023-05-19T20:00:39.638Z,102149.38
2023-05-19T20:01:41.736Z,102153.22
2023-05-19T20:03:03.041Z,102151.78
2023-05-19T20:04:05.485Z,102145.44
2023-05-19T20:05:07.869Z,102157.81
2023-05-19T20:06:09.716Z,102162.28
2023-05-19T20:07:11.563Z,102156.16
2023-05-19T20:08:15.412Z,102158.78
2023-05-19T20:09:17.913Z,102158.78
2023-05-19T20:10:19.985Z,102156.34
2023-05-19T20:11:23.730Z,102157.38
2023-05-19T20:12:25.971Z,102157.38
2023-05-19T20:13:28.574Z,102160.38
2023-05-19T20:14:31.361Z,102157.91
2023-05-19T20:15:33.268Z,102161.38
2023-05-19T20:16:35.923Z,102164.00
2023-05-19T20:17:37.872Z,102165.81
2023-05-19T20:18:39.791Z,102164.38
2023-05-19T20:19:42.066Z,102163.84
2023-05-19T20:20:43.852Z,102167.44
2023-05-19T20:21:45.691Z,102165.47
2023-05-19T20:22:47.560Z,102162.19
2023-05-19T20:23:50.950Z,102165.47
2023-05-19T20:24:52.746Z,102175.19
2023-05-19T20:26:09.206Z,102172.56
2023-05-19T20:27:13.428Z,102178.84
2023-05-19T20:28:15.462Z,102166.47
2023-05-19T20:29:17.298Z,102172.56
2023-05-19T20:30:19.322Z,102176.81
2023-05-19T20:31:23.483Z,102173.38
2023-05-19T20:32:25.597Z,102178.44
2023-05-19T20:33:27.440Z,102181.69
2023-05-19T20:34:29.303Z,102179.06
2023-05-19T20:35:31.216Z,102176.63
2023-05-19T20:36:33.122Z,102182.09
2023-05-19T20:37:34.896Z,102182.44
2023-05-19T20:38:36.672Z,102191.81
2023-05-19T20:39:38.517Z,102178.84
2023-05-19T20:40:40.402Z,102185.09
2023-05-19T20:41:42.245Z,102186.75
2023-05-19T20:42:44.096Z,102181.47
2023-05-19T20:43:45.991Z,102178.19
2023-05-19T20:44:47.872Z,102185.09
2023-05-19T20:45:49.853Z,102180.81
2023-05-19T20:46:51.674Z,102179.00
2023-05-19T20:47:53.617Z,102189.38
2023-05-19T20:48:55.381Z,102183.25
2023-05-19T20:49:58.701Z,102185.91
2023-05-19T20:51:00.659Z,102189.38
2023-05-19T20:52:02.700Z,102187.72
2023-05-19T20:53:04.495Z,102186.75
2023-05-19T20:54:07.289Z,102190.34
2023-05-19T20:55:09.278Z,102185.28
2023-05-19T20:56:11.244Z,102184.09
2023-05-19T20:57:13.610Z,102183.47
2023-05-19T20:58:15.472Z,102182.44
2023-05-19T20:59:17.592Z,102184.47
2023-05-19T21:00:19.431Z,102188.09
2023-05-19T21:01:21.280Z,102183.03
2023-05-19T21:02:23.082Z,102184.00
2023-05-19T21:03:30.322Z,102190.28
2023-05-19T21:04:33.398Z,102194.13
2023-05-19T21:05:36.473Z,102190.22
2023-05-19T21:06:38.414Z,102176.97
2023-05-19T21:07:40.358Z,102185.44
2023-05-19T21:08:42.129Z,102179.53
2023-05-19T21:09:46.505Z,102182.91
2023-05-19T21:10:48.734Z,102178.47
2023-05-19T21:11:53.155Z,102177.03
2023-05-19T21:12:56.236Z,102186.28
2023-05-19T21:13:58.323Z,102180.81
2023-05-19T21:15:01.814Z,102183.47
2023-05-19T21:16:03.673Z,102188.72
2023-05-19T21:17:07.097Z,102182.66
2023-05-19T21:18:11.678Z,102186.91
2023-05-19T21:19:13.778Z,102188.91
2023-05-19T21:20:15.796Z,102186.09
2023-05-19T21:21:17.635Z,102187.91
2023-05-19T21:22:19.488Z,102189.72
2023-05-19T21:23:21.262Z,102194.66
2023-05-19T21:24:23.017Z,102192.16
2023-05-19T21:25:24.837Z,102193.84
2023-05-19T21:26:27.385Z,102193.38
2023-05-19T21:27:29.401Z,102197.63
2023-05-19T21:28:31.253Z,102195.00
2023-05-19T21:29:33.052Z,102188.28
2023-05-19T21:30:35.073Z,102191.75
2023-05-19T21:31:37.238Z,102198.81
2023-05-19T21:32:39.140Z,102192.75
2023-05-19T21:33:40.991Z,102198.19
2023-05-19T21:34:42.931Z,102198.38
2023-05-19T21:35:45.936Z,102206.28
2023-05-19T21:36:49.468Z,102200.19
2023-05-19T21:37:51.838Z,102203.81
2023-05-19T21:38:53.736Z,102208.28
2023-05-19T21:39:55.683Z,102209.91
2023-05-19T21:40:57.520Z,102204.19
2023-05-19T21:42:01.598Z,102205.81
2023-05-19T21:43:04.164Z,102210.09
2023-05-19T21:44:05.965Z,102213.69
2023-05-19T21:45:08.647Z,102205.81
2023-05-19T21:46:10.870Z,102209.44
2023-05-19T21:47:12.807Z,102211.25
2023-05-19T21:48:14.753Z,102206.19
2023-05-19T21:49:16.582Z,102210.63
2023-05-19T21:50:18.395Z,102205.56
2023-05-19T21:51:20.322Z,102209.81
2023-05-19T21:52:22.702Z,102205.56
2023-05-19T21:53:25.270Z,102209.81
2023-05-19T21:54:27.126Z,102209.34
2023-05-19T21:55:28.920Z,102216.44
2023-05-19T21:56:31.030Z,102209.75
2023-05-19T21:57:32.877Z,102208.28
2023-05-19T21:58:34.834Z,102206.66
2023-05-19T21:59:36.857Z,102211.28
2023-05-19T22:00:38.846Z,102219.19
2023-05-19T22:01:40.941Z,102205.38
2023-05-19T22:02:42.984Z,102207.19
2023-05-19T22:03:45.433Z,102216.91
2023-05-19T22:04:47.522Z,102216.28
2023-05-19T22:05:55.048Z,102217.09
2023-05-19T22:06:58.187Z,102219.91
2023-05-19T22:07:59.990Z,102216.63
2023-05-19T22:09:02.561Z,102204.66
2023-05-19T22:10:05.423Z,102216.81
2023-05-19T22:11:08.201Z,102214.38
2023-05-19T22:12:10.042Z,102212.91
2023-05-19T22:13:11.926Z,102216.72
2023-05-19T22:14:14.221Z,102210.81
2023-05-19T22:15:16.079Z,102211.00
2023-05-19T22:16:17.951Z,102214.81
2023-05-19T22:17:19.815Z,102217.44
2023-05-19T22:18:21.938Z,102213.53
2023-05-19T22:19:23.897Z,102219.63
2023-05-19T22:20:25.814Z,102217.97
2023-05-19T22:21:27.657Z,102217.97
2023-05-19T22:22:29.435Z,102216.53
2023-05-19T22:23:31.296Z,102216.84
2023-05-19T22:24:33.106Z,102220.13
2023-05-19T22:25:35.000Z,102216.03
2023-05-19T22:26:36.810Z,102224.75
2023-05-19T22:27:38.758Z,102212.78
2023-05-19T22:28:40.765Z,102224.94
2023-05-19T22:29:42.651Z,102229.38
2023-05-19T22:30:44.441Z,102221.66
2023-05-19T22:31:46.414Z,102224.47
2023-05-19T22:32:48.339Z,102216.75
2023-05-19T22:33:50.235Z,102224.81
2023-05-19T22:34:52.097Z,102217.13
2023-05-19T22:35:53.945Z,102221.56
2023-05-19T22:36:55.729Z,102224.34
2023-05-19T22:37:57.564Z,102221.91
2023-05-19T22:38:59.318Z,102222.72
2023-05-19T22:40:01.124Z,102229.81
2023-05-19T22:41:03.052Z,102227.53
2023-05-19T22:42:05.893Z,102225.91
2023-05-19T22:43:07.986Z,102232.00
2023-05-19T22:44:11.289Z,102221.81
2023-05-19T22:45:13.168Z,102225.06
2023-05-19T22:46:15.022Z,102226.25
2023-05-19T22:47:16.901Z,102220.38
2023-05-19T22:48:18.726Z,102229.25
2023-05-19T22:49:23.379Z,102226.78
2023-05-19T22:50:25.247Z,102222.53
2023-05-19T22:51:27.255Z,102226.50
2023-05-19T22:52:29.041Z,102227.97
2023-05-19T22:53:30.966Z,102227.34
2023-05-19T22:54:32.728Z,102226.69
2023-05-19T22:55:34.773Z,102227.50
2023-05-19T22:56:36.773Z,102231.31
2023-05-19T22:57:38.577Z,102224.41
2023-05-19T22:58:40.428Z,102225.56
2023-05-19T22:59:42.196Z,102228.03
2023-05-19T23:00:44.061Z,102230.69
2023-05-19T23:01:46.562Z,102231.66
2023-05-19T23:02:48.744Z,102226.38
2023-05-19T23:03:50.832Z,102223.13
2023-05-19T23:04:52.674Z,102232.19
2023-05-19T23:05:54.428Z,102233.16
2023-05-19T23:06:56.219Z,102226.13
2023-05-19T23:07:58.090Z,102229.91
2023-05-19T23:09:04.434Z,102225.03
2023-05-19T23:10:07.489Z,102230.44
2023-05-19T23:11:09.399Z,102220.47
2023-05-19T23:12:11.172Z,102219.66
2023-05-19T23:13:12.985Z,102225.88
2023-05-19T23:14:14.753Z,102226.06
2023-05-19T23:15:16.582Z,102231.31
2023-05-19T23:16:18.442Z,102228.06
2023-05-19T23:17:20.367Z,102221.97
2023-05-19T23:18:22.195Z,102225.59
2023-05-19T23:19:24.025Z,102224.75
2023-05-19T23:20:25.894Z,102221.50